Time;durP1;ratioP1;P1;durP2;ratioP2;P2;SDS_P1;SDS_P2;PMS_P1;PMS_P2;Temp;Humidity;BMP_temperature;BMP_pressure;BME280_temperature;BME280_humidity;BME280_pressure;Samples;Min_cycle;Max_cycle;Signal;HPM_P1;HPM_P2
2023/05/03 00:02:09;;;;;;;13.47;3.70;;;5.90;99.90;;;;;;5031910;28;20175;-70
2023/05/03 00:04:36;;;;;;;8.30;4.10;;;5.90;99.90;;;;;;5031853;28;20171;-70
2023/05/03 00:07:02;;;;;;;8.10;4.00;;;5.90;99.90;;;;;;5031418;28;20462;-70
2023/05/03 00:09:28;;;;;;;4.90;4.20;;;5.80;99.90;;;;;;5031877;28;20444;-70
2023/05/03 00:11:54;;;;;;;5.33;3.70;;;5.80;99.90;;;;;;5031633;28;20540;-70
2023/05/03 00:14:19;;;;;;;4.97;3.50;;;5.80;99.90;;;;;;5031806;28;20171;-70
2023/05/03 00:16:45;;;;;;;5.10;4.27;;;5.70;99.90;;;;;;5047034;28;20202;-70
2023/05/03 00:19:10;;;;;;;6.80;4.00;;;5.70;99.90;;;;;;5031467;28;20179;-70
2023/05/03 00:21:36;;;;;;;4.40;3.57;;;5.60;99.90;;;;;;5031993;28;20650;-70
2023/05/03 00:24:02;;;;;;;5.13;3.67;;;5.60;99.90;;;;;;5031606;28;20168;-70
2023/05/03 00:26:28;;;;;;;5.27;3.70;;;5.60;99.90;;;;;;5031589;28;20192;-70
2023/05/03 00:28:53;;;;;;;5.73;4.07;;;5.60;99.90;;;;;;5031279;28;20740;-71
2023/05/03 00:31:19;;;;;;;7.23;4.37;;;5.50;99.90;;;;;;5031446;28;20196;-70
2023/05/03 00:33:44;;;;;;;4.03;3.60;;;5.50;99.90;;;;;;5031642;28;20163;-70
2023/05/03 00:36:12;;;;;;;7.10;3.80;;;5.50;99.90;;;;;;5034873;28;20233;-70
2023/05/03 00:38:38;;;;;;;4.20;3.43;;;5.50;99.90;;;;;;5034899;28;20168;-70
2023/05/03 00:41:05;;;;;;;5.43;2.63;;;5.40;99.90;;;;;;5035244;28;20746;-70
2023/05/03 00:43:31;;;;;;;6.13;4.00;;;5.40;99.90;;;;;;5035211;28;20440;-70
2023/05/03 00:45:58;;;;;;;3.97;3.23;;;5.40;99.90;;;;;;5035098;28;20828;-69
2023/05/03 00:48:25;;;;;;;7.13;4.53;;;5.40;99.90;;;;;;5034956;28;20580;-70
2023/05/03 00:50:53;;;;;;;4.60;3.87;;;5.40;99.90;;;;;;5034975;28;20472;-70
2023/05/03 00:53:20;;;;;;;8.90;4.33;;;5.40;99.90;;;;;;5035037;28;20413;-70
2023/05/03 00:55:46;;;;;;;10.93;3.60;;;5.40;99.90;;;;;;5034974;28;20501;-70
2023/05/03 00:58:12;;;;;;;6.03;4.13;;;5.30;99.90;;;;;;5034724;28;20403;-70
2023/05/03 01:00:37;;;;;;;5.47;4.13;;;5.30;99.90;;;;;;5035033;28;20413;-70
2023/05/03 01:03:03;;;;;;;5.10;4.10;;;5.30;99.90;;;;;;5034885;28;20160;-70
2023/05/03 01:05:36;;;;;;;10.63;3.60;;;5.30;99.90;;;;;;5034697;28;20629;-70
2023/05/03 01:08:14;;;;;;;10.17;4.60;;;5.30;99.90;;;;;;5034618;28;20175;-70
2023/05/03 01:10:54;;;;;;;9.00;4.90;;;5.20;99.90;;;;;;5034741;28;20457;-70
2023/05/03 01:13:43;;;;;;;8.03;4.57;;;5.20;99.90;;;;;;5034624;28;20445;-69
2023/05/03 01:16:13;;;;;;;6.03;3.30;;;5.20;99.90;;;;;;5034429;28;20429;-71
2023/05/03 01:18:43;;;;;;;4.80;4.00;;;5.20;99.90;;;;;;5034519;28;20399;-70
2023/05/03 01:21:09;;;;;;;6.40;3.87;;;5.10;99.90;;;;;;5034647;28;20773;-70
2023/05/03 01:23:53;;;;;;;4.33;3.53;;;5.10;99.90;;;;;;5034536;28;20438;-71
2023/05/03 01:26:24;;;;;;;5.50;3.50;;;5.00;99.90;;;;;;5034337;28;20434;-68
2023/05/03 01:28:50;;;;;;;3.07;2.77;;;5.00;99.90;;;;;;5034041;28;20406;-69
2023/05/03 01:31:31;;;;;;;7.17;4.20;;;5.10;99.90;;;;;;5034143;28;20557;-69
2023/05/03 01:34:15;;;;;;;5.40;3.60;;;5.00;99.90;;;;;;5034404;28;20899;-69
2023/05/03 01:36:43;;;;;;;4.17;3.50;;;5.00;99.90;;;;;;5034183;28;20789;-69
2023/05/03 01:39:29;;;;;;;4.60;3.50;;;5.00;99.90;;;;;;5033963;28;20402;-69
2023/05/03 01:41:56;;;;;;;7.43;3.80;;;4.90;99.90;;;;;;5034198;28;20402;-69
2023/05/03 01:44:22;;;;;;;7.33;3.57;;;4.90;99.90;;;;;;5034096;28;20420;-70
2023/05/03 01:46:48;;;;;;;6.17;4.40;;;4.90;99.90;;;;;;5032847;28;20418;-69
2023/05/03 01:49:14;;;;;;;6.63;5.07;;;4.90;99.90;;;;;;5033783;28;20461;-70
2023/05/03 01:51:40;;;;;;;5.40;4.03;;;4.90;99.90;;;;;;5033736;28;20528;-68
2023/05/03 01:54:06;;;;;;;5.90;4.00;;;4.90;99.90;;;;;;5033993;28;20410;-69
2023/05/03 01:56:34;;;;;;;8.53;4.70;;;4.80;99.90;;;;;;5033756;28;20218;-69
2023/05/03 01:59:00;;;;;;;5.60;3.40;;;4.80;99.90;;;;;;5033545;28;20160;-69
2023/05/03 02:01:25;;;;;;;5.53;4.07;;;4.80;99.90;;;;;;5033785;28;20406;-70
2023/05/03 02:03:51;;;;;;;4.57;3.67;;;4.80;99.90;;;;;;5033679;28;20258;-69
2023/05/03 02:06:16;;;;;;;5.20;3.37;;;4.80;99.90;;;;;;5048917;28;20203;-68
2023/05/03 02:08:42;;;;;;;4.53;4.07;;;4.80;99.90;;;;;;5048768;28;20167;-69
2023/05/03 02:11:07;;;;;;;7.80;3.80;;;4.80;99.90;;;;;;5033453;28;20207;-69
2023/05/03 02:13:36;;;;;;;4.00;3.60;;;4.70;99.90;;;;;;5033473;28;20184;-69
2023/05/03 02:16:01;;;;;;;6.83;4.23;;;4.70;99.90;;;;;;5033377;28;20180;-69
2023/05/03 02:18:30;;;;;;;6.10;4.83;;;4.70;99.90;;;;;;5033097;28;20402;-69
2023/05/03 02:20:56;;;;;;;6.97;3.50;;;4.70;99.90;;;;;;5048842;28;20591;-69
2023/05/03 02:23:22;;;;;;;6.83;4.60;;;4.70;99.90;;;;;;5033285;28;20493;-68
2023/05/03 02:25:48;;;;;;;4.33;3.83;;;4.70;99.90;;;;;;5033214;28;20897;-69
2023/05/03 02:28:14;;;;;;;4.40;3.10;;;4.60;99.90;;;;;;5032965;28;20168;-70
2023/05/03 02:30:39;;;;;;;9.90;3.93;;;4.60;99.90;;;;;;5031796;28;20810;-69
2023/05/03 02:33:05;;;;;;;4.63;3.20;;;4.60;99.90;;;;;;5033155;28;20172;-69
2023/05/03 02:35:31;;;;;;;3.93;3.57;;;4.60;99.90;;;;;;5048431;28;20195;-69
2023/05/03 02:37:56;;;;;;;5.53;3.90;;;4.60;99.90;;;;;;5032758;28;20164;-69
2023/05/03 02:40:22;;;;;;;4.23;3.50;;;4.60;99.90;;;;;;5048341;28;20263;-69
2023/05/03 02:42:47;;;;;;;6.53;4.00;;;4.50;99.90;;;;;;5033334;28;20195;-69
2023/05/03 02:45:13;;;;;;;6.67;4.50;;;4.50;99.90;;;;;;5032901;28;20175;-69
2023/05/03 02:47:39;;;;;;;6.87;4.53;;;4.50;99.90;;;;;;5032551;28;20230;-68
2023/05/03 02:50:05;;;;;;;6.00;4.07;;;4.50;99.90;;;;;;5048146;28;20406;-69
2023/05/03 02:52:31;;;;;;;7.40;3.97;;;4.50;99.90;;;;;;5032800;28;20210;-69
2023/05/03 02:54:56;;;;;;;9.90;5.40;;;4.50;99.90;;;;;;5032715;28;20410;-68
2023/05/03 02:57:22;;;;;;;6.23;4.47;;;4.50;99.90;;;;;;5032198;28;20191;-69
2023/05/03 02:59:48;;;;;;;4.73;4.00;;;4.50;99.90;;;;;;5032735;28;20168;-70
2023/05/03 03:02:13;;;;;;;13.27;6.13;;;4.50;99.90;;;;;;5032450;28;20159;-69
2023/05/03 03:04:39;;;;;;;5.17;3.57;;;4.50;99.90;;;;;;5032728;28;20174;-69
2023/05/03 03:07:04;;;;;;;7.67;5.60;;;4.50;99.90;;;;;;5032243;28;20195;-69
2023/05/03 03:09:30;;;;;;;10.97;4.43;;;4.40;99.90;;;;;;5032507;28;20623;-69
2023/05/03 03:11:55;;;;;;;10.23;4.33;;;4.40;99.90;;;;;;5032294;28;20199;-69
2023/05/03 03:14:21;;;;;;;10.27;5.07;;;4.40;99.90;;;;;;5047798;28;20672;-69
2023/05/03 03:16:50;;;;;;;8.23;3.90;;;4.40;99.90;;;;;;5032500;28;20188;-68
2023/05/03 03:19:15;;;;;;;6.30;4.30;;;4.40;99.90;;;;;;5032590;28;20218;-68
2023/05/03 03:21:41;;;;;;;6.07;3.63;;;4.30;99.90;;;;;;5033069;28;20406;-69
2023/05/03 03:24:06;;;;;;;4.67;3.03;;;4.30;99.90;;;;;;5032737;28;20665;-69
2023/05/03 03:26:32;;;;;;;9.50;4.07;;;4.30;99.90;;;;;;5032607;28;20193;-70
2023/05/03 03:28:57;;;;;;;11.07;3.47;;;4.30;99.90;;;;;;5031985;28;20175;-69
2023/05/03 03:31:24;;;;;;;7.13;4.30;;;4.20;99.90;;;;;;5031944;28;20195;-69
2023/05/03 03:33:50;;;;;;;4.77;2.87;;;4.20;99.90;;;;;;5032210;28;20251;-69
2023/05/03 03:36:16;;;;;;;4.40;3.53;;;4.20;99.90;;;;;;5032371;28;20456;-69
2023/05/03 03:38:41;;;;;;;4.13;2.30;;;4.20;99.90;;;;;;5032275;28;20410;-69
2023/05/03 03:41:07;;;;;;;9.63;3.90;;;4.20;99.90;;;;;;5032121;28;20509;-69
2023/05/03 03:43:33;;;;;;;4.93;3.60;;;4.10;99.90;;;;;;5032065;28;20171;-69
2023/05/03 03:45:58;;;;;;;5.10;3.50;;;4.10;99.90;;;;;;5031874;28;20426;-69
2023/05/03 03:48:24;;;;;;;6.23;3.47;;;4.10;99.90;;;;;;5031797;28;20191;-69
2023/05/03 03:50:50;;;;;;;8.57;4.40;;;4.10;99.90;;;;;;5031860;28;20223;-69
2023/05/03 03:53:15;;;;;;;4.40;3.40;;;4.10;99.90;;;;;;5031998;28;20649;-69
2023/05/03 03:55:41;;;;;;;5.77;4.00;;;4.10;99.90;;;;;;5031894;28;20194;-69
2023/05/03 03:58:06;;;;;;;7.13;3.90;;;4.00;99.90;;;;;;5031606;28;20168;-69
2023/05/03 04:00:34;;;;;;;6.73;4.10;;;4.00;99.90;;;;;;5031820;28;20163;-69
2023/05/03 04:03:00;;;;;;;5.47;3.27;;;4.10;99.90;;;;;;5031867;28;20168;-69
2023/05/03 04:05:25;;;;;;;5.63;3.93;;;4.10;99.90;;;;;;5031789;28;20437;-69
2023/05/03 04:07:51;;;;;;;5.80;3.30;;;4.10;99.90;;;;;;5031623;28;20203;-69
2023/05/03 04:10:16;;;;;;;60.93;24.13;;;4.10;99.90;;;;;;5033844;28;20196;-68
2023/05/03 04:12:42;;;;;;;57.27;28.00;;;4.10;99.90;;;;;;5035677;28;20187;-69
2023/05/03 04:15:08;;;;;;;19.20;11.73;;;4.10;99.90;;;;;;5035609;28;20206;-69
2023/05/03 04:17:33;;;;;;;20.77;10.83;;;4.10;99.90;;;;;;5035639;28;20168;-69
2023/05/03 04:20:06;;;;;;;15.23;7.63;;;4.10;99.90;;;;;;5016331;28;20783;-69
2023/05/03 04:22:32;;;;;;;7.13;4.70;;;4.10;99.90;;;;;;5015944;28;20218;-69
2023/05/03 04:25:00;;;;;;;5.97;4.33;;;4.10;99.90;;;;;;5015953;28;20411;-69
2023/05/03 04:27:26;;;;;;;6.70;4.03;;;4.10;99.90;;;;;;5015483;28;20199;-69
2023/05/03 04:29:52;;;;;;;7.23;4.00;;;4.20;99.90;;;;;;5015684;28;20429;-69
2023/05/03 04:32:22;;;;;;;4.53;3.80;;;4.20;99.90;;;;;;5015573;28;20455;-69
2023/05/03 04:34:51;;;;;;;5.97;4.20;;;4.20;99.90;;;;;;5015543;28;20163;-69
2023/05/03 04:37:18;;;;;;;4.17;3.57;;;4.20;99.90;;;;;;5015093;28;20446;-69
2023/05/03 04:39:45;;;;;;;4.43;2.90;;;4.20;99.90;;;;;;5015576;28;20409;-69
2023/05/03 04:42:14;;;;;;;5.27;3.67;;;4.30;99.90;;;;;;5015388;28;20407;-69
2023/05/03 04:44:40;;;;;;;4.40;3.17;;;4.30;99.90;;;;;;5015486;28;20803;-69
2023/05/03 04:47:06;;;;;;;8.87;3.17;;;4.30;99.90;;;;;;5030154;28;20451;-69
2023/05/03 04:49:33;;;;;;;4.67;3.73;;;4.40;99.90;;;;;;5015309;28;20458;-69
2023/05/03 04:51:59;;;;;;;11.77;4.40;;;4.50;99.90;;;;;;5015364;28;20192;-68
2023/05/03 04:54:24;;;;;;;5.03;3.53;;;4.50;99.90;;;;;;5015912;28;20430;-68
2023/05/03 04:56:50;;;;;;;5.77;4.40;;;4.60;99.90;;;;;;5015471;28;20462;-69
2023/05/03 04:59:16;;;;;;;4.37;3.97;;;4.70;99.90;;;;;;5031163;28;20219;-68
2023/05/03 05:01:41;;;;;;;7.67;4.40;;;4.80;99.90;;;;;;5015975;28;20259;-68
2023/05/03 05:04:07;;;;;;;5.17;3.77;;;5.00;99.90;;;;;;5015819;28;20187;-68
2023/05/03 05:06:32;;;;;;;4.50;3.63;;;5.10;99.90;;;;;;5015478;28;20553;-68
2023/05/03 05:08:58;;;;;;;9.27;6.17;;;5.30;99.90;;;;;;5015522;28;20184;-68
2023/05/03 05:11:23;;;;;;;6.83;5.67;;;5.50;99.90;;;;;;5015307;28;20207;-68
2023/05/03 05:13:49;;;;;;;6.60;4.73;;;5.70;99.90;;;;;;5015603;28;20827;-69
2023/05/03 05:16:15;;;;;;;6.10;4.77;;;5.90;99.90;;;;;;5014786;28;20425;-69
2023/05/03 05:18:40;;;;;;;8.57;5.97;;;6.10;99.90;;;;;;5014640;28;20215;-70
2023/05/03 05:21:06;;;;;;;4.93;4.20;;;6.40;99.90;;;;;;5030114;28;20172;-68
2023/05/03 05:23:31;;;;;;;10.33;4.83;;;6.60;99.90;;;;;;5014913;28;20168;-69
2023/05/03 05:25:59;;;;;;;7.27;4.37;;;6.90;99.90;;;;;;5014743;28;20192;-69
2023/05/03 05:28:28;;;;;;;8.07;4.80;;;7.30;99.90;;;;;;5014426;28;20204;-69
2023/05/03 05:30:53;;;;;;;7.17;4.13;;;7.90;99.90;;;;;;5014665;28;20478;-69
2023/05/03 05:33:19;;;;;;;5.43;3.70;;;8.70;99.90;;;;;;5014540;28;20462;-69
2023/05/03 05:35:46;;;;;;;10.60;4.80;;;9.60;99.90;;;;;;5014562;28;20191;-69
2023/05/03 05:38:11;;;;;;;7.57;5.13;;;10.50;99.90;;;;;;5014496;28;20323;-69
2023/05/03 05:40:37;;;;;;;5.90;4.90;;;11.50;99.90;;;;;;5014612;28;20532;-70
2023/05/03 05:43:03;;;;;;;8.93;5.13;;;12.50;99.90;;;;;;5014502;28;20533;-70
2023/05/03 05:45:29;;;;;;;7.77;4.63;;;13.30;99.90;;;;;;5014316;28;20222;-69
2023/05/03 05:47:55;;;;;;;5.87;3.70;;;14.20;99.90;;;;;;5014081;28;20180;-70
2023/05/03 05:50:21;;;;;;;4.47;4.07;;;15.10;99.90;;;;;;5014296;28;20407;-69
2023/05/03 05:52:49;;;;;;;8.40;4.43;;;15.90;99.90;;;;;;5014188;28;20165;-70
2023/05/03 05:55:15;;;;;;;10.23;4.93;;;16.60;99.90;;;;;;5013934;28;20935;-70
2023/05/03 05:57:40;;;;;;;8.27;3.60;;;17.30;93.70;;;;;;5013841;28;20407;-70
2023/05/03 06:00:13;;;;;;;5.67;4.20;;;18.00;90.60;;;;;;5014047;28;20232;-70
2023/05/03 06:02:39;;;;;;;5.50;4.37;;;18.70;83.40;;;;;;5013035;28;20167;-70
2023/05/03 06:05:06;;;;;;;5.93;4.00;;;19.30;74.60;;;;;;5013850;28;20947;-70
2023/05/03 06:07:31;;;;;;;7.43;4.27;;;20.00;68.00;;;;;;5013619;28;20427;-68
2023/05/03 06:09:57;;;;;;;5.83;4.23;;;20.60;63.40;;;;;;5013845;28;20847;-68
2023/05/03 06:12:22;;;;;;;4.77;4.30;;;21.20;59.10;;;;;;5013602;28;20287;-68
2023/05/03 06:14:48;;;;;;;4.70;3.80;;;21.80;56.60;;;;;;5013721;28;20200;-68
2023/05/03 06:17:13;;;;;;;4.17;3.70;;;22.30;54.10;;;;;;5013364;28;20216;-68
2023/05/03 06:19:39;;;;;;;6.60;4.50;;;22.70;52.10;;;;;;5013677;28;20638;-68
2023/05/03 06:22:05;;;;;;;4.87;3.67;;;23.20;50.30;;;;;;5013616;28;20665;-68
2023/05/03 06:24:31;;;;;;;8.00;4.30;;;23.80;49.00;;;;;;5013387;28;20164;-68
2023/05/03 06:26:57;;;;;;;4.67;3.50;;;24.30;47.60;;;;;;5013153;28;20423;-68
2023/05/03 06:29:23;;;;;;;4.67;3.17;;;24.90;45.60;;;;;;5013527;28;20411;-69
2023/05/03 06:31:49;;;;;;;4.00;3.70;;;25.50;45.60;;;;;;5013100;28;20461;-69
2023/05/03 06:34:19;;;;;;;4.40;4.00;;;26.10;43.50;;;;;;5013347;28;20176;-68
2023/05/03 06:36:44;;;;;;;4.97;3.70;;;26.60;42.00;;;;;;5013375;28;20727;-68
2023/05/03 06:39:10;;;;;;;4.40;3.97;;;27.10;41.10;;;;;;5013069;28;20443;-69
2023/05/03 06:41:35;;;;;;;6.23;4.10;;;27.60;39.40;;;;;;5013253;28;20192;-69
2023/05/03 06:44:02;;;;;;;4.10;3.70;;;28.00;38.10;;;;;;5013214;28;20165;-69
2023/05/03 06:46:28;;;;;;;7.00;3.97;;;28.50;36.60;;;;;;5013174;28;20180;-69
2023/05/03 06:48:57;;;;;;;4.30;3.67;;;28.80;35.80;;;;;;5012991;28;20897;-69
2023/05/03 06:51:26;;;;;;;4.07;3.37;;;29.10;34.60;;;;;;5012919;28;20192;-66
2023/05/03 06:53:53;;;;;;;4.87;4.20;;;29.40;33.90;;;;;;5013133;28;20427;-67
2023/05/03 06:56:19;;;;;;;4.50;4.10;;;29.70;32.60;;;;;;5012970;28;20423;-67
2023/05/03 06:58:44;;;;;;;4.50;4.10;;;29.00;30.80;;;;;;5012694;28;20413;-66
2023/05/03 07:01:10;;;;;;;4.13;3.80;;;28.50;31.30;;;;;;5012867;28;20203;-66
2023/05/03 07:03:36;;;;;;;4.13;3.50;;;28.50;31.80;;;;;;5012937;28;20172;-67
2023/05/03 07:06:02;;;;;;;4.20;3.77;;;28.80;31.90;;;;;;5012788;28;20207;-67
2023/05/03 07:08:28;;;;;;;3.70;3.40;;;29.00;31.80;;;;;;5012517;28;20403;-67
2023/05/03 07:10:54;;;;;;;4.20;3.50;;;29.60;31.60;;;;;;5012629;28;20445;-67
2023/05/03 07:13:20;;;;;;;3.73;3.30;;;30.10;31.10;;;;;;5012683;28;20541;-68
2023/05/03 07:15:46;;;;;;;4.03;3.63;;;30.60;31.40;;;;;;5012631;28;20427;-67
2023/05/03 07:18:11;;;;;;;4.30;3.50;;;30.90;30.30;;;;;;5012411;28;20171;-66
2023/05/03 07:20:37;;;;;;;4.43;3.30;;;31.40;30.10;;;;;;5012507;28;20169;-67
2023/05/03 07:23:03;;;;;;;4.17;3.37;;;32.10;29.30;;;;;;5012605;28;20170;-67
2023/05/03 07:25:28;;;;;;;4.00;3.50;;;32.80;28.90;;;;;;5012465;28;20184;-67
2023/05/03 07:27:54;;;;;;;4.73;3.23;;;33.60;28.60;;;;;;5012249;28;20405;-68
2023/05/03 07:30:21;;;;;;;3.67;3.37;;;34.40;28.10;;;;;;5012388;28;20645;-68
2023/05/03 07:32:46;;;;;;;4.30;3.90;;;34.70;27.00;;;;;;5012405;28;20543;-67
2023/05/03 07:35:13;;;;;;;6.43;4.97;;;35.00;26.50;;;;;;5012317;28;20395;-67
2023/05/03 07:37:39;;;;;;;6.80;4.37;;;35.10;25.80;;;;;;5012089;28;20194;-67
2023/05/03 07:40:06;;;;;;;4.67;4.17;;;35.40;25.70;;;;;;5012346;28;20889;-68
2023/05/03 07:42:31;;;;;;;4.20;3.60;;;35.90;25.70;;;;;;5012293;28;20245;-67
2023/05/03 07:44:59;;;;;;;4.37;3.97;;;36.70;26.10;;;;;;5011518;28;21047;-69
2023/05/03 07:47:25;;;;;;;3.60;3.10;;;36.70;25.20;;;;;;5011936;28;20279;-70
2023/05/03 07:49:50;;;;;;;3.60;3.23;;;37.50;25.50;;;;;;5012160;28;20892;-70
2023/05/03 07:52:16;;;;;;;4.23;3.93;;;38.20;25.00;;;;;;5027271;28;20488;-70
2023/05/03 07:54:44;;;;;;;3.63;3.30;;;38.50;23.60;;;;;;5012137;28;20250;-70
2023/05/03 07:57:10;;;;;;;5.10;4.33;;;38.40;23.20;;;;;;5011948;28;20426;-70
2023/05/03 07:59:37;;;;;;;3.70;3.27;;;38.30;22.70;;;;;;5012124;28;20409;-70
2023/05/03 08:02:03;;;;;;;4.63;3.30;;;38.60;23.30;;;;;;5012259;28;20822;-70
2023/05/03 08:04:28;;;;;;;3.07;2.87;;;39.00;23.40;;;;;;5012136;28;20457;-70
2023/05/03 08:06:54;;;;;;;4.17;3.23;;;39.00;22.00;;;;;;5011933;28;20204;-71
2023/05/03 08:09:19;;;;;;;5.23;3.20;;;39.50;22.30;;;;;;5012029;28;20168;-71
2023/05/03 08:11:45;;;;;;;5.07;3.33;;;40.10;22.50;;;;;;5011889;28;20200;-70
2023/05/03 08:14:11;;;;;;;4.50;3.07;;;39.80;21.10;;;;;;5012066;28;20696;-70
2023/05/03 08:16:36;;;;;;;4.20;3.43;;;39.20;20.70;;;;;;5011873;28;20212;-70
2023/05/03 08:19:03;;;;;;;2.70;2.50;;;38.70;20.50;;;;;;5011679;28;20823;-70
2023/05/03 08:21:29;;;;;;;3.60;2.87;;;39.00;21.40;;;;;;5012018;28;20171;-70
2023/05/03 08:23:55;;;;;;;3.70;2.40;;;38.90;20.90;;;;;;5011914;28;20915;-70
2023/05/03 08:26:21;;;;;;;2.73;2.53;;;38.90;21.70;;;;;;5011880;28;20423;-70
2023/05/03 08:28:46;;;;;;;2.80;2.60;;;39.30;21.30;;;;;;5011643;28;20533;-71
2023/05/03 08:31:12;;;;;;;3.83;3.07;;;40.00;21.00;;;;;;5011910;28;20196;-71
2023/05/03 08:33:38;;;;;;;5.47;3.63;;;40.70;21.10;;;;;;5026973;28;20179;-71
2023/05/03 08:36:04;;;;;;;2.87;2.67;;;41.00;20.30;;;;;;5011842;28;20391;-71
2023/05/03 08:38:31;;;;;;;2.93;2.73;;;41.60;21.40;;;;;;5011527;28;20491;-70
2023/05/03 08:41:03;;;;;;;3.40;2.33;;;41.50;19.70;;;;;;5011793;28;20461;-71
2023/05/03 08:43:33;;;;;;;3.27;2.90;;;41.90;20.90;;;;;;5010563;28;20981;-71
2023/05/03 08:45:59;;;;;;;2.80;2.60;;;42.10;19.90;;;;;;5011730;28;20401;-71
2023/05/03 08:48:24;;;;;;;2.30;2.20;;;42.40;19.60;;;;;;5011413;28;20398;-70
2023/05/03 08:50:51;;;;;;;3.57;2.73;;;41.60;19.60;;;;;;5011727;28;20571;-70
2023/05/03 08:53:17;;;;;;;4.10;2.87;;;42.00;19.60;;;;;;5011768;28;20272;-70
2023/05/03 08:55:43;;;;;;;5.57;2.60;;;42.00;19.70;;;;;;5012761;28;20526;-71
2023/05/03 08:58:11;;;;;;;2.90;2.70;;;42.00;19.70;;;;;;5015034;28;20196;-71
2023/05/03 09:00:37;;;;;;;2.90;2.63;;;42.10;19.00;;;;;;5015050;28;20403;-71
2023/05/03 09:03:03;;;;;;;4.33;2.70;;;41.40;19.00;;;;;;5015191;28;20457;-70
2023/05/03 09:05:34;;;;;;;2.30;2.10;;;41.60;19.20;;;;;;5015004;28;20419;-71
2023/05/03 09:08:10;;;;;;;3.00;2.80;;;42.20;19.60;;;;;;5014895;28;20188;-71
2023/05/03 09:10:38;;;;;;;3.80;2.90;;;42.50;19.40;;;;;;5015175;28;20381;-70
2023/05/03 09:13:05;;;;;;;3.63;2.63;;;42.70;19.40;;;;;;5014415;28;20961;-70
2023/05/03 09:15:31;;;;;;;3.47;3.20;;;42.90;19.30;;;;;;5014799;28;20415;-71
2023/05/03 09:18:08;;;;;;;2.50;2.30;;;42.50;18.20;;;;;;5014598;28;20381;-71
2023/05/03 09:20:35;;;;;;;3.50;2.27;;;42.70;19.80;;;;;;5014686;28;20242;-70
2023/05/03 09:23:01;;;;;;;3.10;2.90;;;42.90;19.00;;;;;;5029769;28;20409;-70
2023/05/03 09:25:44;;;;;;;2.50;2.30;;;43.30;18.90;;;;;;5014903;28;20450;-69
2023/05/03 09:28:14;;;;;;;3.50;2.40;;;43.40;19.10;;;;;;5014494;28;20381;-69
2023/05/03 09:30:41;;;;;;;3.50;3.30;;;43.00;18.60;;;;;;5014716;28;20478;-70
2023/05/03 09:33:07;;;;;;;2.30;2.17;;;42.60;17.60;;;;;;5014561;28;20474;-69
2023/05/03 09:35:32;;;;;;;3.17;2.40;;;42.10;18.40;;;;;;5029784;28;20413;-70
2023/05/03 09:37:59;;;;;;;2.80;2.33;;;42.80;19.20;;;;;;5014183;28;20390;-71
2023/05/03 09:40:25;;;;;;;2.20;2.03;;;43.50;18.80;;;;;;5014418;28;20161;-70
2023/05/03 09:43:08;;;;;;;2.40;2.20;;;44.30;18.90;;;;;;5013099;28;20458;-70
2023/05/03 09:45:37;;;;;;;2.93;2.70;;;44.40;18.30;;;;;;5014364;28;20451;-70
2023/05/03 09:48:04;;;;;;;4.07;3.17;;;45.10;18.40;;;;;;5012860;28;20422;-69
2023/05/03 09:50:35;;;;;;;4.23;2.77;;;44.90;17.30;;;;;;5014264;28;20374;-70
2023/05/03 09:53:02;;;;;;;3.20;2.50;;;45.10;17.40;;;;;;5014227;28;20498;-70
2023/05/03 09:55:35;;;;;;;3.33;2.67;;;45.70;18.50;;;;;;5014070;28;20401;-70
2023/05/03 09:58:05;;;;;;;2.73;2.37;;;46.00;17.70;;;;;;5013948;28;20369;-70
2023/05/03 10:00:33;;;;;;;2.70;2.50;;;46.40;17.70;;;;;;5012747;28;20385;-70
2023/05/03 10:03:00;;;;;;;2.53;2.33;;;46.60;17.50;;;;;;5014107;28;20389;-70
2023/05/03 10:05:31;;;;;;;3.17;2.97;;;46.70;17.30;;;;;;5014386;28;20894;-70
2023/05/03 10:07:59;;;;;;;4.33;2.40;;;46.70;17.40;;;;;;5012801;28;20378;-70
2023/05/03 10:10:27;;;;;;;3.57;2.43;;;46.90;17.30;;;;;;5013869;28;20374;-70
2023/05/03 10:12:53;;;;;;;3.80;3.43;;;47.50;17.70;;;;;;5013720;28;20432;-70
2023/05/03 10:15:21;;;;;;;3.17;2.87;;;47.90;16.60;;;;;;5013739;28;20381;-70
2023/05/03 10:17:50;;;;;;;3.67;3.37;;;47.90;16.20;;;;;;5028691;28;20386;-70
2023/05/03 10:20:35;;;;;;;4.60;3.83;;;46.80;15.60;;;;;;5013740;28;20394;-71
2023/05/03 10:23:04;;;;;;;3.10;2.90;;;46.40;15.90;;;;;;5013665;28;20504;-70
2023/05/03 10:25:30;;;;;;;3.10;1.90;;;46.70;16.00;;;;;;5013747;28;20765;-69
2023/05/03 10:28:02;;;;;;;2.60;2.40;;;46.70;16.30;;;;;;5013247;28;20512;-69
2023/05/03 10:30:33;;;;;;;2.60;2.50;;;46.90;16.30;;;;;;5028971;28;20373;-70
2023/05/03 10:33:20;;;;;;;2.60;2.40;;;47.50;17.10;;;;;;5013486;28;20385;-68
2023/05/03 10:35:51;;;;;;;5.90;5.50;;;48.20;16.60;;;;;;5009481;28;20405;-68
2023/05/03 10:38:21;;;;;;;2.60;2.40;;;46.80;15.20;;;;;;5013164;28;20449;-68
2023/05/03 10:40:47;;;;;;;4.97;3.27;;;47.00;16.40;;;;;;5011916;28;20432;-69
2023/05/03 10:43:33;;;;;;;5.47;4.20;;;47.80;17.00;;;;;;5013199;28;20382;-69
2023/05/03 10:46:04;;;;;;;4.97;3.83;;;48.70;16.60;;;;;;5013143;28;20198;-69
2023/05/03 10:48:33;;;;;;;3.73;3.43;;;49.50;16.50;;;;;;5012918;28;20376;-69
2023/05/03 10:51:32;;;;;;;3.03;2.80;;;50.20;16.30;;;;;;5012985;28;20411;-70
2023/05/03 10:53:58;;;;;;;4.30;3.77;;;50.50;16.00;;;;;;5013123;28;20498;-70
2023/05/03 10:56:23;;;;;;;4.00;2.70;;;50.70;16.00;;;;;;5012964;28;20450;-70
2023/05/03 10:58:50;;;;;;;2.47;2.27;;;51.10;16.20;;;;;;5012724;28;20195;-70
2023/05/03 11:01:17;;;;;;;2.90;2.60;;;51.20;16.10;;;;;;5012668;28;20188;-70
2023/05/03 11:04:06;;;;;;;2.73;2.53;;;51.50;15.90;;;;;;5013032;28;20893;-69
2023/05/03 11:06:34;;;;;;;3.20;2.90;;;51.90;15.60;;;;;;5012743;28;20426;-70
2023/05/03 11:09:03;;;;;;;3.30;3.00;;;52.20;15.80;;;;;;5012616;28;20370;-70
2023/05/03 11:11:29;;;;;;;3.03;2.80;;;52.30;15.70;;;;;;5012678;28;20411;-70
2023/05/03 11:13:56;;;;;;;3.33;2.70;;;51.60;15.30;;;;;;5012686;28;20418;-70
2023/05/03 11:16:22;;;;;;;3.40;3.10;;;51.30;15.30;;;;;;5012647;28;20402;-70
2023/05/03 11:18:47;;;;;;;2.60;2.40;;;51.20;15.60;;;;;;5012201;28;20430;-70
2023/05/03 11:21:14;;;;;;;2.53;2.33;;;51.10;15.50;;;;;;5012542;28;20450;-70
2023/05/03 11:23:41;;;;;;;3.47;2.97;;;51.10;15.90;;;;;;5012692;28;20525;-69
2023/05/03 11:26:10;;;;;;;3.93;3.50;;;51.40;15.80;;;;;;5012523;28;20433;-70
2023/05/03 11:28:40;;;;;;;4.00;2.60;;;51.50;15.60;;;;;;5012260;28;20931;-69
2023/05/03 11:31:07;;;;;;;3.10;2.83;;;51.50;15.40;;;;;;5012468;28;20807;-70
2023/05/03 11:33:34;;;;;;;2.90;2.10;;;50.50;14.30;;;;;;5012484;28;20968;-69
2023/05/03 11:36:05;;;;;;;2.80;2.60;;;49.90;15.40;;;;;;5012343;28;20917;-69
2023/05/03 11:38:32;;;;;;;2.60;2.30;;;49.90;15.50;;;;;;5012159;28;20428;-69
2023/05/03 11:40:58;;;;;;;2.90;2.70;;;50.10;15.70;;;;;;5012206;28;20512;-69
2023/05/03 11:43:25;;;;;;;2.80;2.60;;;50.40;15.90;;;;;;5012425;28;20868;-69
2023/05/03 11:45:53;;;;;;;5.13;2.43;;;50.40;15.40;;;;;;5012210;28;20550;-69
2023/05/03 11:48:19;;;;;;;4.30;2.90;;;50.30;15.40;;;;;;5012028;28;20389;-69
2023/05/03 11:50:56;;;;;;;2.70;2.50;;;50.00;15.30;;;;;;5012132;28;20411;-69
2023/05/03 11:53:23;;;;;;;2.73;2.40;;;49.80;15.80;;;;;;5011100;28;20171;-69
2023/05/03 11:55:52;;;;;;;2.70;2.50;;;49.70;15.50;;;;;;5012165;28;20767;-69
2023/05/03 11:58:25;;;;;;;2.97;2.53;;;49.20;15.10;;;;;;5011917;28;20522;-69
2023/05/03 12:00:56;;;;;;;2.67;2.47;;;48.20;15.00;;;;;;5012105;28;20785;-69
2023/05/03 12:03:24;;;;;;;2.33;1.87;;;48.10;15.50;;;;;;5012241;28;20537;-69
2023/05/03 12:05:54;;;;;;;4.70;2.80;;;48.20;15.40;;;;;;5012342;28;20402;-69
2023/05/03 12:08:20;;;;;;;3.13;2.60;;;48.60;15.80;;;;;;5011949;28;20457;-69
2023/05/03 12:10:47;;;;;;;2.53;2.33;;;48.70;15.80;;;;;;5012140;28;20853;-69
2023/05/03 12:13:13;;;;;;;4.07;3.27;;;48.60;15.90;;;;;;5012052;28;20493;-69
2023/05/03 12:15:39;;;;;;;4.37;2.10;;;48.60;15.40;;;;;;5012001;28;20496;-69
2023/05/03 12:18:10;;;;;;;2.43;2.23;;;48.50;15.40;;;;;;5011707;28;20168;-69
2023/05/03 12:20:37;;;;;;;3.70;3.20;;;48.80;16.00;;;;;;5011916;28;20395;-69
2023/05/03 12:23:06;;;;;;;4.13;2.87;;;49.20;15.60;;;;;;5011924;28;20401;-69
2023/05/03 12:25:35;;;;;;;4.60;2.33;;;48.80;14.90;;;;;;5012001;28;20455;-70
2023/05/03 12:28:03;;;;;;;3.03;2.50;;;48.20;15.00;;;;;;5011634;28;20381;-69
2023/05/03 12:30:28;;;;;;;3.83;2.37;;;48.20;15.60;;;;;;5012704;28;20411;-69
2023/05/03 12:32:54;;;;;;;2.50;2.30;;;48.60;16.00;;;;;;5015702;28;20374;-69
2023/05/03 12:35:21;;;;;;;2.60;2.40;;;48.80;16.10;;;;;;5015623;28;20693;-69
2023/05/03 12:37:48;;;;;;;2.40;2.27;;;48.90;15.70;;;;;;5030371;28;20175;-69
2023/05/03 12:40:15;;;;;;;4.90;2.37;;;48.90;15.80;;;;;;5014370;28;20378;-69
2023/05/03 12:42:41;;;;;;;2.53;2.33;;;48.90;15.80;;;;;;5015482;28;20447;-70
2023/05/03 12:45:07;;;;;;;3.07;2.80;;;49.10;15.70;;;;;;5015440;28;20415;-69
2023/05/03 12:47:33;;;;;;;4.80;2.43;;;48.70;14.60;;;;;;5014985;28;20502;-69
2023/05/03 12:49:59;;;;;;;2.40;2.27;;;47.80;14.60;;;;;;5015292;28;20399;-69
2023/05/03 12:52:24;;;;;;;2.80;2.43;;;47.80;15.70;;;;;;5015460;28;20393;-69